Time;durP1;ratioP1;P1;durP2;ratioP2;P2;SDS_P1;SDS_P2;PMS_P1;PMS_P2;Temp;Humidity;BMP_temperature;BMP_pressure;BME280_temperature;BME280_humidity;BME280_pressure;Samples;Min_cycle;Max_cycle;Signal;HPM_P1;HPM_P2
2022/07/18 00:00:08;;;;;;;1.85;1.75;;;18.80;43.80;;;;;;5012640;28;20034;-71
2022/07/18 00:02:34;;;;;;;2.42;1.55;;;18.80;43.30;;;;;;5012713;28;20018;-71
2022/07/18 00:04:59;;;;;;;3.08;1.48;;;18.80;43.10;;;;;;5012526;28;20124;-71
2022/07/18 00:07:25;;;;;;;3.65;1.80;;;18.80;43.10;;;;;;5012453;28;20093;-72
2022/07/18 00:09:51;;;;;;;4.32;1.98;;;18.80;43.30;;;;;;5012474;28;20098;-71
2022/07/18 00:12:17;;;;;;;1.65;1.50;;;18.60;43.70;;;;;;5011985;28;20503;-71
2022/07/18 00:14:43;;;;;;;3.95;1.88;;;18.50;44.10;;;;;;5012378;28;20041;-71
2022/07/18 00:17:09;;;;;;;3.00;1.42;;;18.50;44.30;;;;;;5012480;28;20026;-71
2022/07/18 00:19:36;;;;;;;2.15;1.67;;;18.50;44.60;;;;;;5012399;28;20037;-72
2022/07/18 00:22:01;;;;;;;2.20;1.80;;;18.40;44.40;;;;;;5010998;28;20059;-72
2022/07/18 00:24:28;;;;;;;1.85;1.63;;;18.50;44.70;;;;;;5012251;28;20065;-72
2022/07/18 00:26:53;;;;;;;2.67;1.60;;;18.50;44.60;;;;;;5012372;28;20037;-72
2022/07/18 00:29:19;;;;;;;1.42;1.33;;;18.60;44.40;;;;;;5012354;28;20100;-72
2022/07/18 00:31:45;;;;;;;2.40;1.50;;;18.60;44.30;;;;;;5010948;28;20025;-72
2022/07/18 00:34:10;;;;;;;2.00;1.63;;;18.60;44.20;;;;;;5011817;28;20050;-72
2022/07/18 00:36:36;;;;;;;3.45;1.90;;;18.60;44.20;;;;;;5012211;28;20030;-72
2022/07/18 00:39:03;;;;;;;2.55;1.73;;;18.50;44.40;;;;;;5011080;28;20504;-76
2022/07/18 00:41:28;;;;;;;2.80;2.00;;;18.50;44.10;;;;;;5012377;28;20477;-72
2022/07/18 00:43:54;;;;;;;2.42;1.73;;;18.40;44.30;;;;;;5011846;28;20038;-77
2022/07/18 00:46:27;;;;;;;1.85;1.58;;;18.30;44.70;;;;;;5013313;28;20029;-72
2022/07/18 00:48:53;;;;;;;1.65;1.55;;;18.20;44.70;;;;;;5012355;28;20033;-72
2022/07/18 00:51:20;;;;;;;2.15;1.80;;;18.30;44.80;;;;;;5012254;28;20044;-76
2022/07/18 00:53:47;;;;;;;2.45;1.80;;;18.20;44.80;;;;;;5013399;28;20033;-73
2022/07/18 00:56:17;;;;;;;2.42;1.63;;;18.00;44.90;;;;;;5012170;28;20026;-73
2022/07/18 00:58:43;;;;;;;2.60;1.63;;;17.90;45.20;;;;;;5012022;28;20053;-72
2022/07/18 01:03:54;;;;;;;2.20;1.63;;;17.80;45.60;;;;;;5011891;28;20041;-72
2022/07/18 01:06:20;;;;;;;6.28;2.00;;;17.70;45.90;;;;;;5012166;28;20053;-72
2022/07/18 01:08:46;;;;;;;3.55;1.67;;;17.70;46.00;;;;;;5011675;28;20466;-72
2022/07/18 01:11:12;;;;;;;3.67;1.88;;;17.80;46.10;;;;;;5011956;28;20030;-76
2022/07/18 01:13:38;;;;;;;2.15;1.90;;;17.80;46.20;;;;;;5012347;28;20026;-82
2022/07/18 01:16:04;;;;;;;1.73;1.50;;;17.80;46.40;;;;;;5012082;28;20105;-78
2022/07/18 01:18:30;;;;;;;1.92;1.55;;;17.70;46.40;;;;;;5012678;28;20034;-74
2022/07/18 01:20:55;;;;;;;2.75;1.70;;;17.70;46.50;;;;;;5012485;28;20029;-81
2022/07/18 01:23:21;;;;;;;2.95;1.50;;;17.70;46.70;;;;;;5016066;28;20038;-73
2022/07/18 01:25:46;;;;;;;4.07;1.95;;;17.60;46.60;;;;;;5025135;28;20121;-74
2022/07/18 01:28:12;;;;;;;4.38;1.85;;;17.60;46.60;;;;;;5024584;28;20014;-72
2022/07/18 01:30:38;;;;;;;3.42;1.80;;;17.60;46.70;;;;;;5016156;28;20581;-74
2022/07/18 01:33:04;;;;;;;4.88;1.80;;;17.60;46.80;;;;;;5012153;28;20108;-72
2022/07/18 01:35:30;;;;;;;2.20;1.60;;;17.50;47.00;;;;;;5011514;28;20467;-71
2022/07/18 01:37:58;;;;;;;2.65;1.85;;;17.50;47.00;;;;;;5011186;28;20091;-72
2022/07/18 01:40:25;;;;;;;3.13;1.63;;;17.40;47.00;;;;;;5011508;28;20021;-72
2022/07/18 01:42:50;;;;;;;4.18;1.90;;;17.40;47.30;;;;;;5010791;28;20116;-71
2022/07/18 01:45:17;;;;;;;2.03;1.48;;;17.40;47.40;;;;;;5011081;28;20504;-71
2022/07/18 01:47:43;;;;;;;4.40;2.00;;;17.50;47.50;;;;;;5010939;28;20074;-72
2022/07/18 01:50:10;;;;;;;1.45;1.33;;;17.50;47.30;;;;;;5011018;28;20102;-72
2022/07/18 01:52:36;;;;;;;1.73;1.63;;;17.40;47.10;;;;;;5011093;28;20053;-72
2022/07/18 01:55:03;;;;;;;3.00;1.50;;;17.40;47.30;;;;;;5010961;28;20474;-72
2022/07/18 01:57:28;;;;;;;4.20;1.70;;;17.30;47.50;;;;;;5009517;28;20030;-72
2022/07/18 01:59:54;;;;;;;1.60;1.50;;;17.30;47.60;;;;;;5010792;28;20037;-72
2022/07/18 02:02:19;;;;;;;3.72;1.70;;;17.30;47.60;;;;;;5010755;28;20026;-73
2022/07/18 02:05:00;;;;;;;3.15;1.50;;;17.30;47.90;;;;;;5010783;28;20033;-73
2022/07/18 02:07:32;;;;;;;4.22;1.85;;;17.30;48.00;;;;;;5010803;28;20079;-72
2022/07/18 02:09:59;;;;;;;3.33;1.60;;;17.30;47.90;;;;;;5010850;28;20026;-72
2022/07/18 02:12:25;;;;;;;4.13;1.58;;;17.30;47.90;;;;;;5010758;28;20032;-72
2022/07/18 02:14:50;;;;;;;2.03;1.80;;;17.20;47.90;;;;;;5010755;28;20038;-73
2022/07/18 02:17:16;;;;;;;4.05;1.80;;;17.10;48.20;;;;;;5010503;28;20030;-71
2022/07/18 02:19:42;;;;;;;3.58;2.13;;;17.10;48.60;;;;;;5009509;28;20075;-72
2022/07/18 02:22:08;;;;;;;3.42;2.05;;;17.00;49.90;;;;;;5010553;28;20036;-74
2022/07/18 02:24:33;;;;;;;3.13;1.50;;;16.90;49.40;;;;;;5010641;28;20064;-77
2022/07/18 02:27:00;;;;;;;2.67;1.70;;;16.90;49.80;;;;;;5010982;28;20489;-72
2022/07/18 02:29:25;;;;;;;5.47;1.60;;;16.90;49.80;;;;;;5011080;28;20022;-77
2022/07/18 02:31:51;;;;;;;3.72;1.52;;;16.90;49.60;;;;;;5010576;28;20045;-72
2022/07/18 02:34:16;;;;;;;2.25;1.52;;;16.90;49.70;;;;;;5010381;28;20050;-72
2022/07/18 02:36:42;;;;;;;3.85;1.67;;;16.90;49.60;;;;;;5011081;28;20018;-78
2022/07/18 02:39:08;;;;;;;3.33;1.80;;;16.90;49.60;;;;;;5010755;28;20038;-74
2022/07/18 02:41:34;;;;;;;3.53;1.80;;;16.80;49.80;;;;;;5011246;28;20029;-71
2022/07/18 02:44:00;;;;;;;1.85;1.45;;;16.60;50.30;;;;;;5010133;28;20037;-71
2022/07/18 02:46:26;;;;;;;3.75;1.48;;;16.50;50.50;;;;;;5010149;28;20032;-71
2022/07/18 02:48:51;;;;;;;1.50;1.40;;;16.50;50.90;;;;;;5010478;28;20036;-74
2022/07/18 02:51:17;;;;;;;2.38;1.35;;;16.50;50.60;;;;;;5010229;28;20022;-74
2022/07/18 02:53:43;;;;;;;2.35;1.60;;;16.60;50.90;;;;;;5009640;28;20025;-73
2022/07/18 02:56:08;;;;;;;2.63;1.33;;;16.70;51.30;;;;;;5010381;28;20026;-85
2022/07/18 02:58:34;;;;;;;2.10;1.90;;;16.80;50.90;;;;;;5011063;28;20417;-86
2022/07/18 03:01:00;;;;;;;2.83;1.65;;;16.90;50.80;;;;;;5011099;28;20030;-84
2022/07/18 03:03:25;;;;;;;2.50;1.63;;;17.00;50.30;;;;;;5011266;28;20480;-87
2022/07/18 03:05:52;;;;;;;3.17;1.45;;;17.00;50.00;;;;;;5011071;28;20060;-86
2022/07/18 03:08:17;;;;;;;3.03;1.60;;;17.00;50.00;;;;;;5010992;28;20026;-86
2022/07/18 03:10:43;;;;;;;1.63;1.52;;;16.90;50.00;;;;;;5010524;28;20030;-87
2022/07/18 03:13:10;;;;;;;2.17;1.70;;;16.80;49.90;;;;;;5010562;28;20061;-74
2022/07/18 03:15:36;;;;;;;1.60;1.50;;;16.70;50.20;;;;;;5010548;28;20025;-75
2022/07/18 03:18:01;;;;;;;2.38;1.67;;;16.70;50.30;;;;;;5010433;28;20048;-82
2022/07/18 03:20:27;;;;;;;2.22;1.60;;;16.80;50.10;;;;;;5010014;28;20129;-71
2022/07/18 03:22:52;;;;;;;3.92;1.73;;;16.80;49.90;;;;;;5009675;28;20467;-72
2022/07/18 03:25:18;;;;;;;2.05;1.75;;;16.70;50.20;;;;;;5009940;28;20545;-72
2022/07/18 03:27:43;;;;;;;1.45;1.35;;;16.70;50.20;;;;;;5010139;28;20022;-80
2022/07/18 03:30:09;;;;;;;3.20;1.80;;;16.80;50.30;;;;;;5010838;28;20412;-87
2022/07/18 03:32:35;;;;;;;2.03;1.65;;;16.80;50.30;;;;;;5010309;28;20049;-83
2022/07/18 03:35:00;;;;;;;1.55;1.40;;;16.80;50.20;;;;;;5010199;28;20470;-81
2022/07/18 03:37:26;;;;;;;3.28;1.98;;;16.80;50.10;;;;;;5010280;28;20079;-85
2022/07/18 03:39:51;;;;;;;3.22;1.73;;;16.90;50.20;;;;;;5010355;28;20030;-83
2022/07/18 03:42:17;;;;;;;2.45;1.90;;;16.80;50.10;;;;;;5010576;28;20383;-87
2022/07/18 03:44:42;;;;;;;3.47;1.70;;;16.70;50.00;;;;;;5010577;28;20041;-85
2022/07/18 03:47:08;;;;;;;2.85;1.60;;;16.70;50.00;;;;;;5009572;28;20363;-73
2022/07/18 03:49:33;;;;;;;2.47;1.58;;;16.60;50.10;;;;;;5009559;28;20057;-71
2022/07/18 03:51:59;;;;;;;6.72;2.00;;;16.50;50.50;;;;;;5009423;28;20176;-78
2022/07/18 03:54:25;;;;;;;1.75;1.65;;;16.50;50.60;;;;;;5009683;28;20060;-72
2022/07/18 03:56:50;;;;;;;2.92;1.67;;;16.50;50.70;;;;;;5009388;28;20438;-71
2022/07/18 03:59:16;;;;;;;2.70;2.25;;;16.50;51.00;;;;;;5009390;28;20024;-73
2022/07/18 04:01:41;;;;;;;4.95;1.80;;;16.50;51.20;;;;;;5009686;28;20147;-72
2022/07/18 04:04:07;;;;;;;5.65;1.70;;;16.50;51.10;;;;;;5009601;28;20117;-75
2022/07/18 04:06:33;;;;;;;3.10;1.75;;;16.50;51.10;;;;;;5011922;28;20026;-76
2022/07/18 04:08:58;;;;;;;2.55;1.70;;;16.50;50.90;;;;;;5012828;28;20025;-73
2022/07/18 04:11:24;;;;;;;3.85;2.13;;;16.60;50.50;;;;;;5012668;28;20022;-73
2022/07/18 04:13:51;;;;;;;1.85;1.60;;;16.50;50.60;;;;;;5012853;28;20022;-72
2022/07/18 04:16:16;;;;;;;3.92;2.03;;;16.60;50.40;;;;;;5012847;28;20026;-79
2022/07/18 04:18:42;;;;;;;2.45;1.70;;;16.60;50.40;;;;;;5013097;28;20025;-83
2022/07/18 04:21:07;;;;;;;2.03;1.60;;;16.80;50.10;;;;;;5014121;28;20034;-73
2022/07/18 04:23:33;;;;;;;3.10;1.80;;;16.90;49.90;;;;;;5015596;28;20111;-72
2022/07/18 04:25:58;;;;;;;3.10;1.73;;;16.90;49.00;;;;;;5013453;28;20535;-85
2022/07/18 04:28:24;;;;;;;2.00;1.80;;;16.90;48.90;;;;;;5013421;28;20040;-80
2022/07/18 04:30:50;;;;;;;4.28;2.17;;;16.90;48.80;;;;;;5013224;28;20033;-81
2022/07/18 04:33:16;;;;;;;3.90;2.20;;;17.00;48.60;;;;;;5013746;28;20067;-88
2022/07/18 04:35:41;;;;;;;2.17;1.75;;;17.00;48.60;;;;;;5013044;28;20026;-83
2022/07/18 04:38:09;;;;;;;3.15;1.90;;;17.00;48.70;;;;;;5013456;28;20105;-83
2022/07/18 04:40:35;;;;;;;7.13;2.15;;;17.10;48.70;;;;;;5013180;28;20037;-89
2022/07/18 04:43:01;;;;;;;3.03;1.90;;;17.10;49.10;;;;;;5013675;28;20030;-78
2022/07/18 04:45:26;;;;;;;2.67;2.13;;;17.00;49.30;;;;;;5016721;28;20038;-82
2022/07/18 04:47:54;;;;;;;4.32;2.10;;;17.00;49.60;;;;;;5016701;28;20108;-87
2022/07/18 04:50:21;;;;;;;3.35;1.88;;;16.90;50.00;;;;;;5013483;28;20026;-80
2022/07/18 04:52:48;;;;;;;2.78;2.17;;;16.90;50.30;;;;;;5014930;28;20033;-73
2022/07/18 04:55:15;;;;;;;7.80;2.15;;;16.80;50.40;;;;;;5012053;28;20394;-72
2022/07/18 04:57:42;;;;;;;3.67;1.90;;;16.90;50.60;;;;;;5011891;28;20018;-70
2022/07/18 05:00:11;;;;;;;5.13;2.10;;;16.90;50.20;;;;;;5012199;28;20041;-71
2022/07/18 05:02:45;;;;;;;7.20;1.90;;;16.90;50.40;;;;;;5011906;28;20029;-71
2022/07/18 05:05:13;;;;;;;2.15;1.77;;;17.00;50.40;;;;;;5012162;28;20025;-71
2022/07/18 05:07:40;;;;;;;4.78;2.17;;;17.10;50.30;;;;;;5012035;28;20036;-71
2022/07/18 05:10:11;;;;;;;5.60;1.77;;;17.20;49.80;;;;;;5011984;28;20100;-72
2022/07/18 05:12:38;;;;;;;4.38;1.98;;;17.40;49.60;;;;;;5011839;28;20018;-72
2022/07/18 05:15:09;;;;;;;5.65;2.28;;;17.50;48.90;;;;;;5012409;28;20534;-71
2022/07/18 05:17:35;;;;;;;7.22;2.28;;;17.60;48.90;;;;;;5011616;28;20070;-72
2022/07/18 05:20:01;;;;;;;3.33;2.00;;;17.60;48.70;;;;;;5012791;28;20034;-71
2022/07/18 05:22:27;;;;;;;3.00;2.10;;;17.60;48.70;;;;;;5012183;28;20025;-71
2022/07/18 05:24:52;;;;;;;5.68;2.03;;;17.70;48.60;;;;;;5012358;28;20038;-83
2022/07/18 05:27:18;;;;;;;3.17;2.00;;;17.80;48.30;;;;;;5012220;28;20025;-74
2022/07/18 05:29:43;;;;;;;7.28;1.90;;;17.90;48.10;;;;;;5012226;28;20109;-75
2022/07/18 05:32:11;;;;;;;4.25;1.95;;;18.10;47.90;;;;;;5013223;28;20022;-83
2022/07/18 05:34:36;;;;;;;5.05;1.75;;;18.40;47.60;;;;;;5012619;28;20646;-89
2022/07/18 05:37:02;;;;;;;5.35;2.38;;;18.60;47.10;;;;;;5012600;28;20075;-88
2022/07/18 05:39:27;;;;;;;7.53;1.90;;;18.70;46.70;;;;;;5012620;28;20034;-88
2022/07/18 05:41:53;;;;;;;4.50;2.30;;;18.90;46.70;;;;;;5011630;28;20096;-72
2022/07/18 05:44:20;;;;;;;4.03;2.22;;;19.00;46.30;;;;;;5011551;28;20520;-72
2022/07/18 05:46:46;;;;;;;3.40;1.85;;;19.10;46.70;;;;;;5011236;28;20467;-72
2022/07/18 05:49:12;;;;;;;5.15;2.00;;;19.20;46.10;;;;;;5011235;28;20037;-75
2022/07/18 05:51:38;;;;;;;5.28;2.10;;;19.20;45.60;;;;;;5011353;28;20026;-72
2022/07/18 05:54:03;;;;;;;4.72;2.10;;;19.20;45.30;;;;;;5010921;28;20109;-71
2022/07/18 05:56:29;;;;;;;7.43;2.42;;;19.40;45.10;;;;;;5011056;28;20015;-77
2022/07/18 05:58:54;;;;;;;9.60;2.42;;;19.50;44.70;;;;;;5010962;28;20431;-71
2022/07/18 06:01:20;;;;;;;4.00;2.15;;;19.50;44.40;;;;;;5010966;28;20033;-72
2022/07/18 06:03:49;;;;;;;7.85;1.90;;;19.60;43.40;;;;;;5010546;28;20060;-72
2022/07/18 06:06:15;;;;;;;5.32;2.17;;;19.60;43.90;;;;;;5010537;28;20022;-71
2022/07/18 06:08:41;;;;;;;5.80;2.47;;;19.70;42.80;;;;;;5010724;28;20026;-72
2022/07/18 06:11:08;;;;;;;20.95;3.38;;;19.80;43.00;;;;;;5010855;28;20363;-72
2022/07/18 06:13:35;;;;;;;8.98;2.75;;;19.90;42.20;;;;;;5010715;28;20022;-72
2022/07/18 06:16:00;;;;;;;10.35;2.67;;;19.90;42.20;;;;;;5010593;28;20026;-73
2022/07/18 06:18:26;;;;;;;7.97;2.40;;;20.10;43.10;;;;;;5010508;28;20075;-73
2022/07/18 06:20:51;;;;;;;4.88;2.13;;;20.20;43.70;;;;;;5010473;28;20026;-71
2022/07/18 06:23:17;;;;;;;8.57;2.17;;;20.30;43.40;;;;;;5010385;28;20034;-72
2022/07/18 06:25:43;;;;;;;6.50;2.25;;;20.30;43.50;;;;;;5010560;28;20032;-72
2022/07/18 06:28:08;;;;;;;6.03;2.25;;;20.40;43.40;;;;;;5010351;28;20373;-75
2022/07/18 06:30:34;;;;;;;5.50;2.35;;;20.50;43.20;;;;;;5007951;28;20029;-72
2022/07/18 06:32:59;;;;;;;10.00;1.98;;;20.60;43.10;;;;;;5010332;28;20486;-72
2022/07/18 06:35:25;;;;;;;5.43;1.95;;;20.80;42.40;;;;;;5010245;28;20026;-72
2022/07/18 06:37:50;;;;;;;4.20;2.00;;;20.90;41.80;;;;;;5010463;28;20109;-73
2022/07/18 06:40:16;;;;;;;4.05;2.00;;;21.10;41.40;;;;;;5009934;28;20022;-73
2022/07/18 06:42:41;;;;;;;2.08;1.67;;;21.20;39.40;;;;;;5010321;28;20036;-74
2022/07/18 06:45:07;;;;;;;4.55;1.92;;;21.40;38.70;;;;;;5010106;28;20038;-72
2022/07/18 06:47:33;;;;;;;2.15;1.65;;;21.50;38.40;;;;;;5009773;28;20026;-73
2022/07/18 06:49:58;;;;;;;4.07;1.85;;;21.70;37.90;;;;;;5009707;28;20424;-74
2022/07/18 06:52:24;;;;;;;2.58;1.80;;;21.80;37.70;;;;;;5010355;28;20404;-76
2022/07/18 06:54:49;;;;;;;4.32;1.95;;;22.00;37.60;;;;;;5009976;28;20033;-72
2022/07/18 06:57:15;;;;;;;8.02;2.55;;;22.10;37.70;;;;;;5010030;28;20038;-74
2022/07/18 06:59:41;;;;;;;13.07;2.58;;;22.30;37.90;;;;;;5008677;28;20027;-73
2022/07/18 07:02:06;;;;;;;5.93;2.30;;;22.40;37.30;;;;;;5008372;28;20339;-75
2022/07/18 07:04:32;;;;;;;3.20;1.90;;;22.60;37.10;;;;;;5008796;28;20096;-75
2022/07/18 07:06:58;;;;;;;4.82;2.00;;;22.80;37.00;;;;;;5008964;28;20086;-74
2022/07/18 07:09:24;;;;;;;7.88;3.17;;;22.90;36.70;;;;;;5008956;28;20029;-73
2022/07/18 07:11:49;;;;;;;3.88;2.83;;;23.10;36.40;;;;;;5008664;28;20029;-75
2022/07/18 07:14:15;;;;;;;5.28;2.10;;;23.20;36.70;;;;;;5011635;28;20018;-75
2022/07/18 07:16:40;;;;;;;5.35;2.63;;;23.30;36.50;;;;;;5009069;28;20034;-75
2022/07/18 07:19:06;;;;;;;7.85;2.30;;;23.50;36.40;;;;;;5009142;28;20470;-77
2022/07/18 07:21:32;;;;;;;5.85;2.05;;;23.50;37.00;;;;;;5009095;28;20072;-77
2022/07/18 07:23:57;;;;;;;4.20;2.15;;;23.40;36.90;;;;;;5008768;28;20034;-77
2022/07/18 07:26:23;;;;;;;5.53;2.13;;;23.50;36.60;;;;;;5008778;28;20026;-76
2022/07/18 07:28:50;;;;;;;4.30;2.10;;;23.60;35.70;;;;;;5009111;28;20026;-87
2022/07/18 07:31:16;;;;;;;2.83;1.92;;;23.80;35.50;;;;;;5009492;28;20033;-73
2022/07/18 07:33:44;;;;;;;2.10;1.90;;;23.80;35.70;;;;;;5008971;28;20533;-74
2022/07/18 07:36:10;;;;;;;5.72;1.95;;;23.90;36.40;;;;;;5009307;28;20022;-77
2022/07/18 07:38:36;;;;;;;6.93;1.73;;;23.90;35.80;;;;;;5009071;28;20026;-87
2022/07/18 07:41:01;;;;;;;4.55;1.50;;;23.70;35.90;;;;;;5010101;28;20078;-84
2022/07/18 07:43:27;;;;;;;3.45;1.83;;;23.80;36.20;;;;;;5011996;28;20018;-77
2022/07/18 07:45:55;;;;;;;1.67;1.40;;;24.00;36.10;;;;;;5012192;28;20186;-77
2022/07/18 07:48:21;;;;;;;4.25;1.65;;;24.00;35.60;;;;;;5012377;28;20159;-76
2022/07/18 07:50:47;;;;;;;1.63;1.52;;;24.20;35.70;;;;;;5012405;28;20120;-76
2022/07/18 07:53:14;;;;;;;3.13;1.75;;;24.30;35.80;;;;;;5012411;28;20026;-76
2022/07/18 07:55:40;;;;;;;2.50;1.60;;;24.40;35.40;;;;;;5012910;28;20485;-89
2022/07/18 07:58:05;;;;;;;4.47;1.80;;;24.50;35.90;;;;;;5011749;28;20026;-73
2022/07/18 08:00:31;;;;;;;5.82;1.60;;;24.60;35.30;;;;;;5011130;28;20022;-77
2022/07/18 08:03:01;;;;;;;1.95;1.45;;;24.50;35.90;;;;;;5012478;28;20439;-75
2022/07/18 08:05:31;;;;;;;2.65;1.83;;;24.60;35.70;;;;;;5011391;28;20094;-76
2022/07/18 08:07:58;;;;;;;3.53;1.55;;;24.70;35.50;;;;;;5011335;28;20022;-73
2022/07/18 08:10:24;;;;;;;3.47;1.63;;;24.60;35.10;;;;;;5011091;28;20087;-73
2022/07/18 08:12:50;;;;;;;5.15;1.98;;;24.80;35.40;;;;;;5010691;28;20486;-75
2022/07/18 08:15:16;;;;;;;5.55;2.10;;;24.80;35.20;;;;;;5011221;28;20030;-74
2022/07/18 08:17:42;;;;;;;3.90;1.90;;;25.00;35.10;;;;;;5010965;28;20104;-75
2022/07/18 08:20:09;;;;;;;5.60;3.15;;;25.00;34.60;;;;;;5011116;28;20029;-74
2022/07/18 08:22:35;;;;;;;2.95;1.58;;;25.20;34.40;;;;;;4995116;28;20044;-81
2022/07/18 08:25:02;;;;;;;3.25;1.70;;;25.30;33.80;;;;;;5011045;28;20045;-76
2022/07/18 08:27:28;;;;;;;1.60;1.50;;;25.50;33.90;;;;;;5010924;28;20079;-76
2022/07/18 08:29:53;;;;;;;7.93;2.03;;;25.70;33.40;;;;;;5011235;28;20026;-75
2022/07/18 08:32:19;;;;;;;3.30;2.08;;;25.70;32.70;;;;;;5010991;28;20022;-75
2022/07/18 08:34:44;;;;;;;4.63;2.00;;;25.70;31.90;;;;;;4994761;28;20054;-74
2022/07/18 08:37:10;;;;;;;6.13;1.65;;;25.70;32.70;;;;;;5010884;28;20030;-74
2022/07/18 08:39:35;;;;;;;5.43;2.10;;;25.80;32.80;;;;;;5010891;28;20022;-74
2022/07/18 08:42:01;;;;;;;3.63;1.98;;;26.00;32.60;;;;;;5010309;28;20074;-77
2022/07/18 08:44:31;;;;;;;3.40;2.80;;;26.10;32.00;;;;;;5010720;28;20041;-77
2022/07/18 08:46:59;;;;;;;2.70;2.20;;;26.40;31.60;;;;;;4994169;28;20026;-75
2022/07/18 08:49:25;;;;;;;2.30;1.75;;;26.50;31.40;;;;;;5010252;28;20033;-74
2022/07/18 08:51:51;;;;;;;2.45;1.90;;;26.60;30.00;;;;;;5010251;28;20037;-75
2022/07/18 08:54:17;;;;;;;5.07;1.73;;;26.70;29.50;;;;;;5010835;28;20046;-78
2022/07/18 08:56:42;;;;;;;3.95;1.98;;;26.70;29.20;;;;;;5011795;28;20138;-76
2022/07/18 08:59:08;;;;;;;5.72;2.03;;;26.90;29.40;;;;;;5010596;28;20025;-72
2022/07/18 09:01:34;;;;;;;4.38;1.80;;;27.00;30.00;;;;;;5010618;28;20050;-72
2022/07/18 09:04:14;;;;;;;6.95;4.85;;;27.20;29.60;;;;;;5010493;28;20121;-72
2022/07/18 09:06:48;;;;;;;4.30;1.80;;;27.20;29.80;;;;;;5010233;28;20098;-72
2022/07/18 09:09:16;;;;;;;3.53;1.65;;;27.30;27.70;;;;;;5010674;28;20125;-72
2022/07/18 09:11:56;;;;;;;6.57;2.22;;;27.30;27.40;;;;;;5011203;28;20113;-73
2022/07/18 09:14:41;;;;;;;3.50;1.98;;;27.40;26.70;;;;;;5010540;28;20026;-72
2022/07/18 09:17:07;;;;;;;4.07;1.77;;;27.50;27.10;;;;;;5010712;28;20075;-74
2022/07/18 09:19:33;;;;;;;3.65;1.90;;;27.50;26.30;;;;;;5009765;28;20030;-72
2022/07/18 09:22:16;;;;;;;5.78;1.83;;;27.60;26.40;;;;;;5009913;28;20025;-72
2022/07/18 09:25:01;;;;;;;4.72;2.03;;;27.80;25.70;;;;;;5009939;28;20048;-72
2022/07/18 09:27:28;;;;;;;;;;;27.80;25.30;;;;;;5010410;28;20208;-72
2022/07/18 09:30:11;;;;;;;2.63;1.80;;;27.90;26.70;;;;;;5009327;28;19912;-72
2022/07/18 09:32:38;;;;;;;3.75;1.42;;;28.00;27.40;;;;;;5009915;28;20109;-73
2022/07/18 09:35:15;;;;;;;4.53;1.95;;;28.20;26.90;;;;;;5011154;28;20030;-72
2022/07/18 09:37:55;;;;;;;3.50;1.60;;;28.30;26.20;;;;;;5009646;28;20036;-74
2022/07/18 09:40:22;;;;;;;2.80;1.70;;;28.30;26.80;;;;;;5009586;28;20038;-72
2022/07/18 09:42:51;;;;;;;2.22;1.48;;;28.40;26.00;;;;;;5009776;28;20492;-73
2022/07/18 09:45:22;;;;;;;3.35;1.40;;;28.40;25.60;;;;;;5009864;28;20030;-73
2022/07/18 09:47:56;;;;;;;2.42;1.63;;;28.50;24.80;;;;;;5009709;28;20029;-73
2022/07/18 09:50:30;;;;;;;6.97;3.47;;;28.60;25.70;;;;;;5009489;28;20022;-74
2022/07/18 09:53:05;;;;;;;5.63;1.83;;;28.80;24.50;;;;;;5010803;28;20482;-74
2022/07/18 09:55:33;;;;;;;1.58;1.48;;;28.90;23.90;;;;;;5007179;28;20034;-73
2022/07/18 09:58:07;;;;;;;5.18;1.40;;;29.00;25.20;;;;;;5010809;28;20026;-73
2022/07/18 10:00:35;;;;;;;6.13;1.92;;;29.00;25.00;;;;;;5063787;28;20032;-72
2022/07/18 10:03:02;;;;;;;3.08;1.67;;;29.10;23.60;;;;;;5119708;27;20521;-74
2022/07/18 10:05:33;;;;;;;3.60;1.33;;;29.20;25.10;;;;;;5129136;27;20038;-72
2022/07/18 10:08:01;;;;;;;5.78;1.48;;;29.20;22.70;;;;;;5129192;27;20019;-73
2022/07/18 10:10:29;;;;;;;4.05;1.40;;;29.30;23.10;;;;;;5129389;27;20058;-72
2022/07/18 10:12:56;;;;;;;4.55;1.80;;;29.30;22.70;;;;;;5129274;27;20047;-76
2022/07/18 10:15:24;;;;;;;2.97;1.60;;;29.30;23.10;;;;;;5129097;27;20023;-74
2022/07/18 10:17:50;;;;;;;2.88;1.50;;;29.50;23.50;;;;;;5129181;27;20031;-74
2022/07/18 10:20:16;;;;;;;4.25;1.92;;;29.50;21.70;;;;;;5129501;27;20023;-73
2022/07/18 10:22:43;;;;;;;5.57;1.50;;;29.50;21.90;;;;;;5129570;27;20127;-73
2022/07/18 10:25:11;;;;;;;2.22;1.65;;;29.50;21.80;;;;;;5129454;27;20031;-73
2022/07/18 10:28:00;;;;;;;4.28;1.55;;;29.70;21.70;;;;;;5128874;27;20073;-74
2022/07/18 10:30:46;;;;;;;2.75;1.40;;;29.80;22.20;;;;;;5128869;27;20076;-73
2022/07/18 10:33:39;;;;;;;5.63;1.65;;;30.00;22.20;;;;;;5112760;28;20039;-74
2022/07/18 10:36:07;;;;;;;5.03;2.40;;;30.00;20.20;;;;;;5112990;28;20020;-77
2022/07/18 10:38:33;;;;;;;4.70;1.50;;;30.20;20.80;;;;;;5112794;28;20019;-72
2022/07/18 10:41:06;;;;;;;3.30;1.60;;;30.30;20.60;;;;;;5112904;28;20018;-72
2022/07/18 10:43:33;;;;;;;2.22;1.40;;;30.50;21.50;;;;;;5112637;28;20023;-73
2022/07/18 10:46:00;;;;;;;2.92;1.60;;;30.60;21.40;;;;;;5112533;28;20127;-72
2022/07/18 10:48:35;;;;;;;2.78;1.52;;;30.70;20.70;;;;;;5111484;28;20464;-74
2022/07/18 10:51:15;;;;;;;;;;;30.90;20.00;;;;;;5112783;28;20034;-73
2022/07/18 10:53:53;;;;;;;3.72;1.30;;;31.00;20.00;;;;;;5112376;28;19930;-74
2022/07/18 10:56:28;;;;;;;2.20;1.50;;;30.70;19.90;;;;;;5112831;28;20108;-75
2022/07/18 10:58:57;;;;;;;3.65;1.50;;;30.90;20.20;;;;;;5112669;28;20046;-74
2022/07/18 11:01:24;;;;;;;1.52;1.35;;;31.00;19.90;;;;;;5112670;28;20032;-74
2022/07/18 11:03:49;;;;;;;4.07;1.75;;;30.90;19.00;;;;;;5112399;28;20066;-75
2022/07/18 11:06:15;;;;;;;2.05;1.60;;;31.00;19.90;;;;;;5112510;28;20055;-76
2022/07/18 11:08:41;;;;;;;4.22;1.38;;;31.20;19.70;;;;;;5112909;28;20028;-74
2022/07/18 11:11:09;;;;;;;2.20;1.40;;;31.30;18.90;;;;;;5112858;28;20023;-73
2022/07/18 11:13:35;;;;;;;4.75;1.50;;;31.40;18.30;;;;;;5112837;28;20110;-74
2022/07/18 11:16:14;;;;;;;1.83;1.48;;;31.50;18.50;;;;;;5114462;28;20076;-73
2022/07/18 11:18:45;;;;;;;3.40;1.20;;;31.60;19.10;;;;;;5117063;28;20098;-73
2022/07/18 11:21:20;;;;;;;3.55;1.48;;;31.60;18.80;;;;;;5116815;28;20076;-73
2022/07/18 11:23:51;;;;;;;3.53;1.70;;;31.90;18.30;;;;;;5116832;28;20392;-73
2022/07/18 11:26:22;;;;;;;6.30;1.85;;;32.00;19.10;;;;;;5117197;28;20030;-73
2022/07/18 11:28:56;;;;;;;2.17;1.48;;;32.20;18.90;;;;;;5117140;28;20016;-73
2022/07/18 11:31:22;;;;;;;4.50;1.52;;;31.90;17.20;;;;;;5117200;28;20364;-75
2022/07/18 11:33:51;;;;;;;3.17;1.85;;;31.70;18.10;;;;;;5116877;28;20407;-72
2022/07/18 11:36:19;;;;;;;2.78;1.67;;;31.40;18.80;;;;;;5116744;28;20106;-76
2022/07/18 11:38:59;;;;;;;4.43;1.70;;;31.40;18.50;;;;;;5116588;28;20077;-73
2022/07/18 11:41:26;;;;;;;1.92;1.30;;;31.70;18.20;;;;;;5116946;28;20012;-74
2022/07/18 11:43:53;;;;;;;4.85;1.33;;;31.70;18.00;;;;;;5116582;28;20032;-73
2022/07/18 11:46:21;;;;;;;3.20;1.70;;;31.70;18.90;;;;;;5116254;28;20467;-73
2022/07/18 11:48:56;;;;;;;2.30;1.33;;;31.70;17.70;;;;;;5116908;28;20114;-73
2022/07/18 11:51:22;;;;;;;1.60;1.30;;;32.00;18.30;;;;;;5116669;27;20043;-74
2022/07/18 11:53:52;;;;;;;3.38;1.30;;;31.80;18.20;;;;;;5116460;28;20492;-75
2022/07/18 11:56:19;;;;;;;1.60;1.40;;;31.70;18.10;;;;;;5116457;28;20028;-73
2022/07/18 11:58:48;;;;;;;3.83;1.42;;;31.60;18.30;;;;;;5132223;27;20028;-74
2022/07/18 12:01:13;;;;;;;3.35;1.58;;;31.60;18.80;;;;;;5116175;28;20107;-75
2022/07/18 12:03:44;;;;;;;9.05;1.80;;;31.80;18.60;;;;;;5116145;28;20110;-73
2022/07/18 12:06:15;;;;;;;3.40;1.50;;;32.20;18.70;;;;;;5116341;28;20023;-73
2022/07/18 12:08:46;;;;;;;6.32;1.40;;;32.60;18.10;;;;;;5116077;28;20118;-73
2022/07/18 12:11:28;;;;;;;4.78;1.60;;;32.30;16.90;;;;;;5116118;28;20043;-74
2022/07/18 12:13:55;;;;;;;1.75;1.48;;;32.20;16.90;;;;;;5115973;28;20028;-76
2022/07/18 12:16:35;;;;;;;5.97;1.45;;;32.00;17.40;;;;;;5116414;28;20019;-83
2022/07/18 12:19:23;;;;;;;3.25;1.65;;;32.10;17.80;;;;;;5116310;28;20027;-82
2022/07/18 12:21:53;;;;;;;3.15;1.17;;;32.40;17.40;;;;;;5116749;28;20023;-84
2022/07/18 12:24:45;;;;;;;2.03;1.45;;;32.20;18.20;;;;;;5116747;28;20046;-85
2022/07/18 12:27:35;;;;;;;2.13;1.27;;;32.60;17.50;;;;;;5116765;28;20022;-79
2022/07/18 12:30:20;;;;;;;2.35;1.25;;;32.90;16.50;;;;;;5110751;28;20106;-77
2022/07/18 12:32:55;;;;;;;3.22;1.40;;;33.20;17.30;;;;;;5116542;28;20103;-82
2022/07/18 12:35:24;;;;;;;3.17;1.50;;;33.50;17.10;;;;;;5117716;28;20031;-74
2022/07/18 12:37:55;;;;;;;2.55;1.38;;;33.80;15.60;;;;;;5115802;28;20106;-75
2022/07/18 12:40:22;;;;;;;4.35;1.08;;;33.60;16.20;;;;;;5122512;28;20067;-78
2022/07/18 12:42:48;;;;;;;4.18;1.30;;;33.60;15.60;;;;;;5120361;28;20024;-81
2022/07/18 12:45:15;;;;;;;3.17;1.55;;;33.20;15.90;;;;;;5117277;28;20114;-78
2022/07/18 12:47:41;;;;;;;1.48;1.38;;;33.30;16.00;;;;;;5116198;28;20027;-80
2022/07/18 12:50:07;;;;;;;1.60;1.50;;;33.30;16.40;;;;;;5131521;27;20353;-80
2022/07/18 12:52:33;;;;;;;1.60;1.23;;;33.40;15.60;;;;;;5131524;27;20023;-79